Time;durP1;ratioP1;P1;durP2;ratioP2;P2;SDS_P1;SDS_P2;PMS_P1;PMS_P2;Temp;Humidity;BMP_temperature;BMP_pressure;BME280_temperature;BME280_humidity;BME280_pressure;Samples;Min_cycle;Max_cycle;Signal;HPM_P1;HPM_P2
2022/10/12 00:00:31;;;;;;;0.00;0.00;;;8.10;99.90;;;;;;5014431;28;20269;-74
2022/10/12 00:02:59;;;;;;;0.00;0.00;;;8.10;99.90;;;;;;5014485;28;20249;-75
2022/10/12 00:05:27;;;;;;;0.00;0.00;;;8.10;99.90;;;;;;5014370;28;20261;-75
2022/10/12 00:07:55;;;;;;;0.00;0.00;;;8.10;99.90;;;;;;5014129;28;20257;-74
2022/10/12 00:10:24;;;;;;;0.00;0.00;;;8.00;99.90;;;;;;5015344;28;20714;-75
2022/10/12 00:12:51;;;;;;;0.00;0.00;;;8.00;99.90;;;;;;5016791;28;20246;-75
2022/10/12 00:15:19;;;;;;;0.00;0.00;;;8.00;99.90;;;;;;5014824;28;20211;-74
2022/10/12 00:17:47;;;;;;;0.00;0.00;;;8.00;99.90;;;;;;5013887;28;20202;-74
2022/10/12 00:20:15;;;;;;;0.00;0.00;;;8.00;99.90;;;;;;5013841;28;20215;-74
2022/10/12 00:22:42;;;;;;;0.00;0.00;;;8.00;99.90;;;;;;5014105;28;20215;-74
2022/10/12 00:25:10;;;;;;;0.00;0.00;;;8.00;99.90;;;;;;5014263;28;20222;-74
2022/10/12 00:27:39;;;;;;;0.00;0.00;;;8.00;99.90;;;;;;5013797;28;20265;-74
2022/10/12 00:30:08;;;;;;;0.00;0.00;;;8.10;99.90;;;;;;5014120;28;20642;-75
2022/10/12 00:32:36;;;;;;;0.00;0.00;;;8.10;99.90;;;;;;5014274;28;20207;-74
2022/10/12 00:35:04;;;;;;;0.00;0.00;;;8.20;99.90;;;;;;5014138;28;20265;-75
2022/10/12 00:37:32;;;;;;;0.00;0.00;;;8.30;99.90;;;;;;5013679;28;20636;-74
2022/10/12 00:40:00;;;;;;;0.00;0.00;;;8.40;99.90;;;;;;5013975;28;20223;-74
2022/10/12 00:42:28;;;;;;;0.00;0.00;;;8.50;99.90;;;;;;5013775;28;20230;-75
2022/10/12 00:44:57;;;;;;;0.00;0.00;;;8.50;99.90;;;;;;5013579;28;20214;-75
2022/10/12 00:47:30;;;;;;;0.00;0.00;;;8.50;99.90;;;;;;5013590;28;20222;-74
2022/10/12 00:50:02;;;;;;;0.00;0.00;;;8.60;99.90;;;;;;5013410;28;20638;-74
2022/10/12 00:52:37;;;;;;;0.00;0.00;;;8.60;99.90;;;;;;5013762;28;20203;-75
2022/10/12 00:55:07;;;;;;;0.00;0.00;;;8.60;99.90;;;;;;5013530;28;20617;-75
2022/10/12 00:57:35;;;;;;;0.00;0.00;;;8.60;99.90;;;;;;5013172;28;20740;-73
2022/10/12 01:00:09;;;;;;;0.00;0.00;;;8.60;99.90;;;;;;5013419;28;20278;-74
2022/10/12 01:02:40;;;;;;;0.00;0.00;;;8.60;99.90;;;;;;5012703;28;20203;-75
2022/10/12 01:05:09;;;;;;;0.00;0.00;;;8.70;99.90;;;;;;5013199;28;20599;-74
2022/10/12 01:07:37;;;;;;;0.00;0.00;;;8.70;99.90;;;;;;5013169;28;20223;-74
2022/10/12 01:10:06;;;;;;;0.00;0.00;;;8.80;99.90;;;;;;5013394;28;20280;-75
2022/10/12 01:12:35;;;;;;;0.00;0.00;;;8.90;99.90;;;;;;5013582;28;20203;-74
2022/10/12 01:15:03;;;;;;;0.00;0.00;;;8.90;99.90;;;;;;5013346;28;20203;-74
2022/10/12 01:17:39;;;;;;;0.00;0.00;;;9.00;99.90;;;;;;5013292;28;20203;-74
2022/10/12 01:20:32;;;;;;;0.00;0.00;;;9.00;99.90;;;;;;5012922;28;20382;-75
2022/10/12 01:23:41;;;;;;;0.00;0.00;;;9.00;99.90;;;;;;5013333;28;20207;-74
2022/10/12 01:26:39;;;;;;;0.00;0.00;;;9.10;99.90;;;;;;4972203;28;20219;-75
2022/10/12 01:29:21;;;;;;;0.00;0.00;;;9.10;99.90;;;;;;5005210;28;20203;-74
2022/10/12 01:31:57;;;;;;;0.00;0.00;;;9.10;99.90;;;;;;5013369;28;20641;-74
2022/10/12 01:34:33;;;;;;;0.00;0.00;;;9.10;99.90;;;;;;5013159;28;20265;-74
2022/10/12 01:37:09;;;;;;;0.00;0.00;;;9.10;99.90;;;;;;5012933;28;20276;-75
2022/10/12 01:39:43;;;;;;;0.00;0.00;;;9.20;99.90;;;;;;5012986;28;20328;-74
2022/10/12 01:42:18;;;;;;;0.00;0.00;;;9.20;99.90;;;;;;5013102;28;20209;-74
2022/10/12 01:44:46;;;;;;;0.00;0.00;;;9.20;99.90;;;;;;5013075;28;20198;-75
2022/10/12 01:47:15;;;;;;;0.00;0.00;;;9.30;99.90;;;;;;5012800;28;20223;-75
2022/10/12 01:49:43;;;;;;;0.00;0.00;;;9.30;99.90;;;;;;5012830;28;20508;-74
2022/10/12 01:52:22;;;;;;;0.00;0.00;;;9.30;99.90;;;;;;5013021;28;20281;-74
2022/10/12 01:55:01;;;;;;;0.00;0.00;;;9.30;99.90;;;;;;5013127;28;20554;-75
2022/10/12 01:57:39;;;;;;;0.00;0.00;;;9.40;99.90;;;;;;5012816;28;20929;-74
2022/10/12 02:00:11;;;;;;;0.00;0.00;;;9.40;99.90;;;;;;5013225;28;20226;-74
2022/10/12 02:02:54;;;;;;;0.00;0.00;;;9.40;99.90;;;;;;5013044;28;20620;-74
2022/10/12 02:05:32;;;;;;;0.00;0.00;;;9.50;99.90;;;;;;5013043;28;20207;-75
2022/10/12 02:08:09;;;;;;;0.00;0.00;;;9.50;99.90;;;;;;5012587;28;20617;-74
2022/10/12 02:10:41;;;;;;;0.00;0.00;;;9.60;99.90;;;;;;5012846;28;20235;-75
2022/10/12 02:13:13;;;;;;;0.00;0.00;;;9.60;99.90;;;;;;5013068;28;21013;-75
2022/10/12 02:20:59;;;;;;;0.00;0.00;;;9.70;99.90;;;;;;5036911;28;20228;-75
2022/10/12 02:23:28;;;;;;;0.00;0.00;;;9.80;99.90;;;;;;5038203;28;20249;-75
2022/10/12 02:25:58;;;;;;;0.00;0.00;;;9.80;99.90;;;;;;5036331;28;20441;-75
2022/10/12 02:28:29;;;;;;;0.00;0.00;;;9.90;99.90;;;;;;5036288;28;20222;-74
2022/10/12 02:31:01;;;;;;;0.00;0.00;;;9.90;99.90;;;;;;5036222;28;20483;-74
2022/10/12 02:33:34;;;;;;;0.00;0.00;;;9.90;99.90;;;;;;5035945;28;20209;-75
2022/10/12 02:36:10;;;;;;;0.00;0.00;;;10.00;99.90;;;;;;5035903;28;20449;-75
2022/10/12 02:38:43;;;;;;;0.00;0.00;;;10.00;99.90;;;;;;5036438;28;20502;-74
2022/10/12 02:41:15;;;;;;;0.00;0.00;;;10.00;99.90;;;;;;5035819;28;20456;-74
2022/10/12 02:43:47;;;;;;;0.00;0.00;;;10.00;99.90;;;;;;5035948;28;20202;-74
2022/10/12 02:46:18;;;;;;;0.00;0.00;;;10.00;99.90;;;;;;5035895;28;20444;-75
2022/10/12 02:48:48;;;;;;;0.00;0.00;;;10.10;99.90;;;;;;5035532;28;20534;-75
2022/10/12 02:51:18;;;;;;;0.00;0.00;;;10.10;99.90;;;;;;5035671;28;20333;-75
2022/10/12 02:53:46;;;;;;;0.00;0.00;;;10.20;99.90;;;;;;5035725;28;20297;-75
2022/10/12 02:56:15;;;;;;;0.00;0.00;;;10.20;99.90;;;;;;5035587;28;20472;-75
2022/10/12 02:58:45;;;;;;;0.00;0.00;;;10.20;99.90;;;;;;5035082;28;20673;-74
2022/10/12 03:01:15;;;;;;;0.00;0.00;;;10.20;99.90;;;;;;5035500;28;20625;-75
2022/10/12 03:03:43;;;;;;;0.00;0.00;;;10.20;99.90;;;;;;5035508;28;20436;-75
2022/10/12 03:06:11;;;;;;;0.00;0.00;;;10.30;99.90;;;;;;5035958;28;20214;-74
2022/10/12 03:08:40;;;;;;;0.00;0.00;;;10.30;99.90;;;;;;5034846;28;20226;-75
2022/10/12 03:11:12;;;;;;;0.00;0.00;;;10.30;99.90;;;;;;5035208;28;20476;-75
2022/10/12 03:13:39;;;;;;;0.00;0.00;;;10.30;99.90;;;;;;5034494;28;20452;-75
2022/10/12 03:16:09;;;;;;;0.00;0.00;;;10.30;99.90;;;;;;5034998;28;20488;-75
2022/10/12 03:18:37;;;;;;;0.00;0.00;;;10.40;99.90;;;;;;5034936;28;20433;-75
2022/10/12 03:21:05;;;;;;;0.00;0.00;;;10.40;99.90;;;;;;5034751;28;20484;-75
2022/10/12 03:23:33;;;;;;;0.00;0.00;;;10.40;99.90;;;;;;5035263;28;20944;-75
2022/10/12 03:26:03;;;;;;;0.00;0.00;;;10.40;99.90;;;;;;5034116;28;20503;-74
2022/10/12 03:28:31;;;;;;;0.00;0.00;;;10.40;99.90;;;;;;5034786;28;20481;-75
2022/10/12 03:30:59;;;;;;;0.00;0.00;;;10.50;99.90;;;;;;5034635;28;20972;-74
2022/10/12 03:33:27;;;;;;;0.00;0.00;;;10.50;99.90;;;;;;5034804;28;20436;-75
2022/10/12 03:35:54;;;;;;;0.00;0.00;;;10.50;99.90;;;;;;5034559;28;20499;-75
2022/10/12 03:38:22;;;;;;;0.00;0.00;;;10.50;99.90;;;;;;5034412;28;20487;-74
2022/10/12 03:40:50;;;;;;;0.00;0.00;;;10.50;99.90;;;;;;5034676;28;20465;-74
2022/10/12 03:43:19;;;;;;;0.00;0.00;;;10.50;99.90;;;;;;5034528;28;20941;-75
2022/10/12 03:45:47;;;;;;;0.00;0.00;;;10.50;99.90;;;;;;5034487;28;20441;-75
2022/10/12 03:48:15;;;;;;;0.00;0.00;;;10.50;99.90;;;;;;5034492;28;20885;-75
2022/10/12 03:50:42;;;;;;;0.00;0.00;;;10.60;99.90;;;;;;5034263;28;20468;-75
2022/10/12 03:53:10;;;;;;;0.00;0.00;;;10.60;99.90;;;;;;5034815;28;20445;-75
2022/10/12 03:55:38;;;;;;;0.00;0.00;;;10.60;99.90;;;;;;5034709;28;20445;-75
2022/10/12 03:58:06;;;;;;;0.00;0.00;;;10.60;99.90;;;;;;5034421;28;20483;-75
2022/10/12 04:00:35;;;;;;;0.00;0.00;;;10.60;99.90;;;;;;5034228;28;20465;-75
2022/10/12 04:03:03;;;;;;;0.00;0.00;;;10.60;99.90;;;;;;5034206;28;20928;-75
2022/10/12 04:05:31;;;;;;;0.00;0.00;;;10.60;99.90;;;;;;5033984;28;20449;-74
2022/10/12 04:07:59;;;;;;;0.00;0.00;;;10.70;99.90;;;;;;5033698;28;20472;-75
2022/10/12 04:10:27;;;;;;;0.00;0.00;;;10.70;99.90;;;;;;5034181;28;20465;-74
2022/10/12 04:12:55;;;;;;;0.00;0.00;;;10.70;99.90;;;;;;5035052;28;20441;-75
2022/10/12 04:15:22;;;;;;;0.00;0.00;;;10.70;99.90;;;;;;5034706;28;20940;-75
2022/10/12 04:17:52;;;;;;;0.00;0.00;;;10.80;99.90;;;;;;5034660;28;20433;-74
2022/10/12 04:20:20;;;;;;;0.00;0.00;;;10.80;99.90;;;;;;5033801;28;20473;-75
2022/10/12 04:22:48;;;;;;;0.00;0.00;;;10.80;99.90;;;;;;5033904;28;20804;-74
2022/10/12 04:25:15;;;;;;;0.00;0.00;;;10.70;99.90;;;;;;5033724;28;20437;-75
2022/10/12 04:27:43;;;;;;;0.00;0.00;;;10.70;99.90;;;;;;5033778;28;20430;-75
2022/10/12 04:30:12;;;;;;;0.00;0.00;;;10.80;99.90;;;;;;5039240;28;20519;-75
2022/10/12 04:32:39;;;;;;;0.00;0.00;;;10.80;99.90;;;;;;5036321;28;20503;-75
2022/10/12 04:35:09;;;;;;;0.00;0.00;;;10.70;99.90;;;;;;5033567;28;20936;-75
2022/10/12 04:37:37;;;;;;;0.00;0.00;;;10.80;99.90;;;;;;5033366;28;20843;-74
2022/10/12 04:40:06;;;;;;;0.00;0.00;;;10.70;99.90;;;;;;5033582;28;20480;-74
2022/10/12 04:42:34;;;;;;;0.00;0.00;;;10.60;99.90;;;;;;5033680;28;20449;-74
2022/10/12 04:45:02;;;;;;;0.00;0.00;;;10.40;99.90;;;;;;5033419;28;20444;-74
2022/10/12 04:47:30;;;;;;;0.00;0.00;;;10.30;99.90;;;;;;5033621;28;20445;-74
2022/10/12 04:49:57;;;;;;;0.00;0.00;;;10.20;99.90;;;;;;5033327;28;20534;-75
2022/10/12 04:52:27;;;;;;;0.00;0.00;;;10.00;99.90;;;;;;5033576;28;20499;-74
2022/10/12 04:54:54;;;;;;;0.00;0.00;;;9.90;99.90;;;;;;5033335;28;20436;-74
2022/10/12 04:57:22;;;;;;;0.00;0.00;;;9.80;99.90;;;;;;5033506;28;20449;-74
2022/10/12 04:59:50;;;;;;;0.00;0.00;;;9.70;99.90;;;;;;5033424;28;20227;-74
2022/10/12 05:02:17;;;;;;;0.00;0.00;;;9.60;99.90;;;;;;5033711;28;20205;-75
2022/10/12 05:04:45;;;;;;;0.00;0.00;;;9.60;99.90;;;;;;5033396;28;20581;-74
2022/10/12 05:07:13;;;;;;;0.00;0.00;;;9.50;99.90;;;;;;5032560;28;20448;-75
2022/10/12 05:09:42;;;;;;;0.00;0.00;;;9.50;99.90;;;;;;5032813;28;21045;-75
2022/10/12 05:12:10;;;;;;;0.00;0.00;;;9.50;99.90;;;;;;5033049;28;20198;-75
2022/10/12 05:14:37;;;;;;;0.00;0.00;;;9.40;99.90;;;;;;5033102;28;20293;-75
2022/10/12 05:17:05;;;;;;;0.00;0.00;;;9.40;99.90;;;;;;5032966;28;20217;-74
2022/10/12 05:19:33;;;;;;;0.00;0.00;;;9.30;99.90;;;;;;5033053;28;20252;-74
2022/10/12 05:22:01;;;;;;;0.00;0.00;;;9.30;99.90;;;;;;5033692;28;20214;-74
2022/10/12 05:24:29;;;;;;;0.00;0.00;;;9.20;99.90;;;;;;5032909;28;20562;-74
2022/10/12 05:26:58;;;;;;;0.00;0.00;;;9.10;99.90;;;;;;5032736;28;20202;-74
2022/10/12 05:29:25;;;;;;;0.00;0.00;;;9.00;99.90;;;;;;5032722;28;20268;-72
2022/10/12 05:31:53;;;;;;;0.00;0.00;;;9.00;99.90;;;;;;5033152;28;20209;-74
2022/10/12 05:34:21;;;;;;;0.00;0.00;;;8.90;99.90;;;;;;5033292;28;20202;-75
2022/10/12 05:36:49;;;;;;;0.00;0.00;;;8.90;99.90;;;;;;5033636;28;20205;-75
2022/10/12 05:39:17;;;;;;;0.00;0.00;;;8.90;99.90;;;;;;5032879;28;20198;-74
2022/10/12 05:41:44;;;;;;;0.00;0.00;;;8.80;99.90;;;;;;5033154;28;20762;-74
2022/10/12 05:44:14;;;;;;;0.00;0.00;;;8.80;99.90;;;;;;5032610;28;20206;-74
2022/10/12 05:46:41;;;;;;;0.00;0.00;;;8.70;99.90;;;;;;5032809;28;20218;-74
2022/10/12 05:49:09;;;;;;;0.00;0.00;;;8.70;99.90;;;;;;5034394;28;20280;-74
2022/10/12 05:51:39;;;;;;;0.00;0.00;;;8.70;99.90;;;;;;5036519;28;20218;-74
2022/10/12 05:54:07;;;;;;;0.00;0.00;;;8.70;99.90;;;;;;5036926;28;20209;-74
2022/10/12 05:56:34;;;;;;;0.00;0.00;;;8.70;99.90;;;;;;5037173;28;20198;-74
2022/10/12 05:59:03;;;;;;;0.00;0.00;;;8.60;99.90;;;;;;5036564;28;20272;-74
2022/10/12 06:01:32;;;;;;;0.00;0.00;;;8.60;99.90;;;;;;5037436;28;20226;-74
2022/10/12 06:03:59;;;;;;;0.00;0.00;;;8.60;99.90;;;;;;5036507;28;20241;-75
2022/10/12 06:06:27;;;;;;;0.00;0.00;;;8.70;99.90;;;;;;5035900;28;20206;-74
2022/10/12 06:08:55;;;;;;;0.00;0.00;;;8.70;99.90;;;;;;5036484;28;20292;-74
2022/10/12 06:11:23;;;;;;;0.00;0.00;;;8.80;99.90;;;;;;5036353;28;20226;-74
2022/10/12 06:13:53;;;;;;;0.00;0.00;;;8.80;99.90;;;;;;5036325;28;20207;-74
2022/10/12 06:16:21;;;;;;;0.00;0.00;;;8.80;99.90;;;;;;5036395;28;20206;-74
2022/10/12 06:18:50;;;;;;;0.00;0.00;;;8.80;99.90;;;;;;5035915;28;20202;-74
2022/10/12 06:21:18;;;;;;;0.00;0.00;;;8.90;99.90;;;;;;5035754;28;20234;-74
2022/10/12 06:24:02;;;;;;;0.00;0.00;;;8.90;99.90;;;;;;5036836;28;20206;-74
2022/10/12 06:26:29;;;;;;;0.00;0.00;;;8.90;99.90;;;;;;5036008;28;20206;-74
2022/10/12 06:28:59;;;;;;;0.00;0.00;;;9.00;99.90;;;;;;5035623;28;20665;-74
2022/10/12 06:31:27;;;;;;;0.00;0.00;;;9.00;99.90;;;;;;5036025;28;20230;-74
2022/10/12 06:33:56;;;;;;;0.00;0.00;;;9.00;99.90;;;;;;5036295;28;20677;-74
2022/10/12 06:36:24;;;;;;;0.00;0.00;;;9.10;99.90;;;;;;5036219;28;20203;-74
2022/10/12 06:38:52;;;;;;;0.00;0.00;;;9.10;99.90;;;;;;5038991;28;20206;-74
2022/10/12 06:41:20;;;;;;;0.00;0.00;;;9.10;99.90;;;;;;5037797;28;20218;-74
2022/10/12 06:43:47;;;;;;;0.00;0.00;;;9.10;99.90;;;;;;5035843;28;20737;-74
2022/10/12 06:46:15;;;;;;;0.00;0.00;;;9.10;99.90;;;;;;5036033;28;20198;-74
2022/10/12 06:48:43;;;;;;;0.00;0.00;;;9.20;99.90;;;;;;5035706;28;20207;-74
2022/10/12 06:51:12;;;;;;;0.00;0.00;;;9.20;99.90;;;;;;5035669;28;20280;-74
2022/10/12 06:53:40;;;;;;;0.00;0.00;;;9.20;99.90;;;;;;5035872;28;20204;-74
2022/10/12 06:56:09;;;;;;;0.00;0.00;;;9.20;99.90;;;;;;5035780;28;20575;-74
2022/10/12 06:58:36;;;;;;;0.00;0.00;;;9.20;99.90;;;;;;5035335;28;20955;-74
2022/10/12 07:01:06;;;;;;;0.00;0.00;;;9.20;99.90;;;;;;5034062;28;20253;-74
2022/10/12 07:03:34;;;;;;;0.00;0.00;;;9.20;99.90;;;;;;5035588;28;20608;-74
2022/10/12 07:06:07;;;;;;;0.00;0.00;;;9.20;99.90;;;;;;5035002;28;20260;-75
2022/10/12 07:08:36;;;;;;;0.00;0.00;;;9.30;99.90;;;;;;5035760;28;20346;-75
2022/10/12 07:11:06;;;;;;;0.00;0.00;;;9.30;99.90;;;;;;5035524;28;20222;-74
2022/10/12 07:13:35;;;;;;;0.00;0.00;;;9.30;99.90;;;;;;5036023;28;20252;-75
2022/10/12 07:16:02;;;;;;;0.00;0.00;;;9.30;99.90;;;;;;5035623;28;20960;-74
2022/10/12 07:18:30;;;;;;;0.00;0.00;;;9.40;99.90;;;;;;5035208;28;20198;-75
2022/10/12 07:21:01;;;;;;;0.00;0.00;;;9.40;99.90;;;;;;5034982;28;20230;-75
2022/10/12 07:23:29;;;;;;;0.00;0.00;;;9.50;99.90;;;;;;5035303;28;20437;-74
2022/10/12 07:25:59;;;;;;;0.00;0.00;;;9.50;99.90;;;;;;5035073;28;20923;-74
2022/10/12 07:28:27;;;;;;;0.00;0.00;;;9.60;99.90;;;;;;5034782;28;20441;-74
2022/10/12 07:31:00;;;;;;;0.00;0.00;;;9.60;99.90;;;;;;5034796;28;20226;-75
2022/10/12 07:33:30;;;;;;;0.00;0.00;;;9.70;99.90;;;;;;5034785;28;20699;-74
2022/10/12 07:35:58;;;;;;;0.00;0.00;;;9.80;99.90;;;;;;5034685;28;20511;-74
2022/10/12 07:38:47;;;;;;;0.00;0.00;;;9.90;99.90;;;;;;5034713;28;20202;-74
2022/10/12 07:41:16;;;;;;;0.00;0.00;;;9.90;99.90;;;;;;5034737;28;20979;-75
2022/10/12 07:43:44;;;;;;;0.00;0.00;;;10.00;99.90;;;;;;5034772;28;20441;-75
2022/10/12 07:46:12;;;;;;;0.00;0.00;;;10.10;99.90;;;;;;5034478;28;20441;-75
2022/10/12 07:48:40;;;;;;;0.00;0.00;;;10.10;99.90;;;;;;5034665;28;20457;-74
2022/10/12 07:51:16;;;;;;;0.00;0.00;;;10.20;99.90;;;;;;5034746;28;20283;-74
2022/10/12 07:53:44;;;;;;;0.00;0.00;;;10.30;99.90;;;;;;5034852;28;20445;-75
2022/10/12 07:56:14;;;;;;;0.00;0.00;;;10.40;99.90;;;;;;5034303;28;20863;-74
2022/10/12 07:58:48;;;;;;;0.00;0.00;;;10.50;99.90;;;;;;5034723;28;20437;-74
2022/10/12 08:01:17;;;;;;;0.00;0.00;;;10.50;99.90;;;;;;5034355;28;20515;-75
2022/10/12 08:03:45;;;;;;;0.00;0.00;;;10.60;99.90;;;;;;5034304;28;20441;-74
2022/10/12 08:06:15;;;;;;;0.00;0.00;;;10.60;99.90;;;;;;5034187;28;20518;-74
2022/10/12 08:08:43;;;;;;;0.00;0.00;;;10.70;99.90;;;;;;5034561;28;20487;-75
2022/10/12 08:11:12;;;;;;;0.00;0.00;;;10.70;99.90;;;;;;5033258;28;20555;-75
2022/10/12 08:13:40;;;;;;;0.00;0.00;;;10.80;99.90;;;;;;5034379;28;20441;-74
2022/10/12 08:16:12;;;;;;;0.00;0.00;;;10.90;99.90;;;;;;5034152;28;20433;-74
2022/10/12 08:18:40;;;;;;;0.00;0.00;;;10.90;99.90;;;;;;5033893;28;20468;-75
2022/10/12 08:21:09;;;;;;;0.00;0.00;;;11.00;99.90;;;;;;5034028;28;20473;-75
2022/10/12 08:23:37;;;;;;;0.00;0.00;;;11.10;99.90;;;;;;5033982;28;20445;-75
2022/10/12 08:26:06;;;;;;;0.00;0.00;;;11.20;99.90;;;;;;5033835;28;20867;-75
2022/10/12 08:28:35;;;;;;;0.00;0.00;;;11.20;99.90;;;;;;5034213;28;20499;-75
2022/10/12 08:31:06;;;;;;;0.00;0.00;;;11.30;99.90;;;;;;5033648;28;20485;-74
2022/10/12 08:33:36;;;;;;;0.00;0.00;;;11.40;99.90;;;;;;5033912;28;20777;-75
2022/10/12 08:36:05;;;;;;;0.00;0.00;;;11.40;99.90;;;;;;5033818;28;21010;-75
2022/10/12 08:38:33;;;;;;;0.00;0.00;;;11.40;99.90;;;;;;5033875;28;20448;-75
2022/10/12 08:41:13;;;;;;;0.00;0.00;;;11.50;99.90;;;;;;5033747;28;20474;-75
2022/10/12 08:43:56;;;;;;;0.00;0.00;;;11.70;99.90;;;;;;5033672;28;20437;-74
2022/10/12 08:46:26;;;;;;;0.00;0.00;;;11.70;99.90;;;;;;5033609;28;20495;-75
2022/10/12 08:49:01;;;;;;;0.00;0.00;;;11.80;99.90;;;;;;5033152;28;20972;-74
2022/10/12 08:51:32;;;;;;;0.00;0.00;;;11.90;99.90;;;;;;5033447;28;20534;-74
2022/10/12 08:54:03;;;;;;;0.00;0.00;;;12.00;99.90;;;;;;5033202;28;20917;-74
2022/10/12 08:56:33;;;;;;;0.00;0.00;;;12.00;99.90;;;;;;5033444;28;20445;-74
2022/10/12 08:59:02;;;;;;;0.00;0.00;;;12.10;99.90;;;;;;5033321;28;20446;-75
2022/10/12 09:01:35;;;;;;;0.00;0.00;;;12.20;99.90;;;;;;5033040;28;20469;-75
2022/10/12 09:04:16;;;;;;;0.00;0.00;;;12.30;99.90;;;;;;5033241;28;20488;-74
2022/10/12 09:06:49;;;;;;;0.00;0.00;;;12.30;99.90;;;;;;5032758;28;20460;-75
2022/10/12 09:09:45;;;;;;;0.00;0.00;;;12.40;99.90;;;;;;5032950;28;20429;-75
2022/10/12 09:12:27;;;;;;;0.00;0.00;;;12.50;99.90;;;;;;5031758;28;20484;-75
2022/10/12 09:15:01;;;;;;;0.00;0.00;;;12.60;99.90;;;;;;5033126;28;20853;-74
2022/10/12 09:17:32;;;;;;;0.00;0.00;;;12.60;99.90;;;;;;5032969;28;20612;-74
2022/10/12 09:20:07;;;;;;;0.00;0.00;;;12.70;99.90;;;;;;5032753;28;20818;-75
2022/10/12 09:22:35;;;;;;;0.00;0.00;;;12.70;99.90;;;;;;5033122;28;20440;-74
2022/10/12 09:25:06;;;;;;;0.00;0.00;;;12.80;99.90;;;;;;5032911;28;21130;-74
2022/10/12 09:27:40;;;;;;;0.00;0.00;;;12.90;99.90;;;;;;5034229;28;20425;-74
2022/10/12 09:30:14;;;;;;;0.00;0.00;;;13.00;99.90;;;;;;5033397;28;20453;-75
2022/10/12 09:32:55;;;;;;;0.00;0.00;;;13.00;99.90;;;;;;5033051;28;20472;-75
2022/10/12 09:35:24;;;;;;;0.00;0.00;;;13.10;99.90;;;;;;5033225;28;20437;-75
2022/10/12 09:37:53;;;;;;;0.00;0.00;;;13.10;99.90;;;;;;5032698;28;20487;-74
2022/10/12 09:40:23;;;;;;;0.00;0.00;;;13.20;99.90;;;;;;5032791;28;20472;-75
2022/10/12 09:42:53;;;;;;;0.00;0.00;;;13.20;99.90;;;;;;5032882;28;20917;-75
2022/10/12 09:45:22;;;;;;;0.00;0.00;;;13.30;99.90;;;;;;5032900;28;20464;-75
2022/10/12 09:48:12;;;;;;;0.00;0.00;;;13.40;99.90;;;;;;5032836;28;20453;-74
2022/10/12 09:50:44;;;;;;;0.00;0.00;;;13.50;99.90;;;;;;5028406;28;20465;-74
2022/10/12 09:53:27;;;;;;;0.00;0.00;;;13.40;99.90;;;;;;5032929;28;20452;-75
2022/10/12 09:56:02;;;;;;;0.00;0.00;;;13.50;99.90;;;;;;5032699;28;20446;-75
2022/10/12 09:58:33;;;;;;;0.00;0.00;;;13.50;99.90;;;;;;5033204;28;20894;-74
2022/10/12 10:01:29;;;;;;;0.00;0.00;;;13.60;99.90;;;;;;5032847;28;20544;-75
2022/10/12 10:04:10;;;;;;;0.00;0.00;;;13.60;99.90;;;;;;5032841;28;20525;-75
2022/10/12 10:06:41;;;;;;;0.00;0.00;;;13.60;99.90;;;;;;5032643;28;20928;-75
2022/10/12 10:09:30;;;;;;;0.00;0.00;;;13.60;99.90;;;;;;5032504;28;20441;-75
2022/10/12 10:12:12;;;;;;;0.00;0.00;;;13.70;99.90;;;;;;5032647;28;20481;-75
2022/10/12 10:14:43;;;;;;;0.00;0.00;;;13.70;99.90;;;;;;5032559;28;20460;-75
2022/10/12 10:17:15;;;;;;;0.00;0.00;;;13.80;99.90;;;;;;5032633;28;20492;-75
2022/10/12 10:19:50;;;;;;;0.00;0.00;;;14.00;99.90;;;;;;5033140;28;20499;-75
2022/10/12 10:22:19;;;;;;;0.00;0.00;;;14.10;99.90;;;;;;5033132;28;20428;-75
2022/10/12 10:24:51;;;;;;;0.00;0.00;;;14.10;99.90;;;;;;5032726;28;20444;-75
2022/10/12 10:27:31;;;;;;;0.00;0.00;;;14.10;99.90;;;;;;5032607;28;20970;-75
2022/10/12 10:30:10;;;;;;;0.00;0.00;;;14.10;99.90;;;;;;5032824;28;20457;-75
2022/10/12 10:33:15;;;;;;;0.00;0.00;;;14.20;99.90;;;;;;5032582;28;20504;-75
2022/10/12 10:35:56;;;;;;;0.00;0.00;;;14.30;99.90;;;;;;5035214;28;20425;-75
2022/10/12 10:38:26;;;;;;;0.00;0.00;;;14.30;99.90;;;;;;5036151;28;20447;-75
2022/10/12 10:40:56;;;;;;;0.00;0.00;;;14.30;99.90;;;;;;5036347;28;20460;-75
2022/10/12 10:43:28;;;;;;;0.00;0.00;;;14.30;99.90;;;;;;5036100;28;20921;-75
2022/10/12 10:46:00;;;;;;;0.00;0.00;;;14.40;99.90;;;;;;5035955;28;20441;-75
2022/10/12 10:48:30;;;;;;;0.00;0.00;;;14.40;99.90;;;;;;5035727;28;20437;-75
2022/10/12 10:51:00;;;;;;;0.00;0.00;;;14.40;99.90;;;;;;5035819;28;20882;-75
2022/10/12 10:53:32;;;;;;;0.00;0.00;;;14.40;99.90;;;;;;5035754;28;20553;-75
2022/10/12 10:56:05;;;;;;;0.00;0.00;;;14.50;99.90;;;;;;5036171;28;20441;-75
2022/10/12 10:58:37;;;;;;;0.00;0.00;;;14.50;99.90;;;;;;5035882;28;20438;-75
2022/10/12 11:01:14;;;;;;;0.00;0.00;;;14.60;99.90;;;;;;5036650;28;20988;-74
2022/10/12 11:03:51;;;;;;;0.00;0.00;;;14.70;99.90;;;;;;5035645;28;20952;-75
2022/10/12 11:06:29;;;;;;;0.00;0.00;;;14.80;99.90;;;;;;5035254;28;20440;-75
2022/10/12 11:09:04;;;;;;;0.00;0.00;;;14.80;99.90;;;;;;5035821;28;20434;-75
2022/10/12 11:11:36;;;;;;;0.00;0.00;;;14.80;99.90;;;;;;5035394;28;20490;-75
2022/10/12 11:14:11;;;;;;;0.00;0.00;;;14.80;99.90;;;;;;5035879;28;20516;-75
2022/10/12 11:16:44;;;;;;;0.00;0.00;;;14.70;99.90;;;;;;5035601;28;20444;-74
2022/10/12 11:19:22;;;;;;;0.00;0.00;;;14.80;99.90;;;;;;5035879;28;20425;-75
2022/10/12 11:21:54;;;;;;;0.00;0.00;;;14.90;99.90;;;;;;5034719;28;20857;-75
2022/10/12 11:24:28;;;;;;;0.00;0.00;;;15.00;99.90;;;;;;5035753;28;20441;-75
2022/10/12 11:27:02;;;;;;;0.00;0.00;;;15.00;99.90;;;;;;5034902;28;20948;-76
2022/10/12 11:29:30;;;;;;;0.00;0.00;;;15.10;99.90;;;;;;5035048;28;20413;-75
2022/10/12 11:32:03;;;;;;;0.00;0.00;;;15.20;99.90;;;;;;5035166;28;20580;-74
2022/10/12 11:34:38;;;;;;;0.00;0.00;;;15.20;99.90;;;;;;5035301;28;20443;-75
2022/10/12 11:37:12;;;;;;;0.00;0.00;;;15.20;99.90;;;;;;5035274;28;20863;-75
2022/10/12 11:39:52;;;;;;;0.00;0.00;;;15.10;99.90;;;;;;5034938;28;20487;-75
2022/10/12 11:42:28;;;;;;;0.00;0.00;;;15.10;99.90;;;;;;5035935;28;20528;-75
2022/10/12 11:44:59;;;;;;;0.00;0.00;;;15.10;99.90;;;;;;5035026;28;20801;-74
2022/10/12 11:47:34;;;;;;;0.00;0.00;;;15.10;99.90;;;;;;5034603;28;20480;-74
2022/10/12 11:50:05;;;;;;;0.00;0.00;;;15.30;99.90;;;;;;5034850;28;20445;-74
2022/10/12 11:52:38;;;;;;;0.00;0.00;;;15.30;99.90;;;;;;5034947;28;20484;-75
2022/10/12 11:55:32;;;;;;;0.00;0.00;;;15.40;99.90;;;;;;5039332;28;20437;-74
2022/10/12 11:58:04;;;;;;;0.00;0.00;;;15.40;99.90;;;;;;5036945;28;20452;-74
2022/10/12 12:00:54;;;;;;;0.00;0.00;;;15.50;99.90;;;;;;5034742;28;20461;-75
2022/10/12 12:03:30;;;;;;;0.00;0.00;;;15.50;99.90;;;;;;5034974;28;20443;-75
2022/10/12 12:06:39;;;;;;;0.00;0.00;;;15.40;99.90;;;;;;5034632;28;20536;-75
2022/10/12 12:09:22;;;;;;;0.00;0.00;;;15.50;99.90;;;;;;5034295;28;20653;-74
2022/10/12 12:11:51;;;;;;;0.00;0.00;;;15.50;99.90;;;;;;5034470;28;20833;-75
2022/10/12 12:14:42;;;;;;;0.00;0.00;;;15.50;99.90;;;;;;5034235;28;20437;-74
2022/10/12 12:17:19;;;;;;;0.00;0.00;;;15.50;99.90;;;;;;5034609;28;20456;-74
2022/10/12 12:19:48;;;;;;;0.00;0.00;;;15.60;99.90;;;;;;5034430;28;20468;-74
2022/10/12 12:22:31;;;;;;;0.00;0.00;;;15.50;99.90;;;;;;5035474;28;20503;-74
2022/10/12 12:25:16;;;;;;;0.00;0.00;;;15.60;99.90;;;;;;5035452;28;20498;-74
2022/10/12 12:27:48;;;;;;;0.00;0.00;;;15.60;99.90;;;;;;5034395;28;20956;-76
2022/10/12 12:30:34;;;;;;;0.00;0.00;;;15.60;99.90;;;;;;5034279;28;20620;-75
2022/10/12 12:33:06;;;;;;;0.00;0.00;;;15.70;99.90;;;;;;5033980;28;20587;-74
2022/10/12 12:35:38;;;;;;;0.00;0.00;;;15.70;99.90;;;;;;5034073;28;20450;-75
2022/10/12 12:38:18;;;;;;;0.00;0.00;;;15.80;99.90;;;;;;5033403;28;20912;-75
2022/10/12 12:40:59;;;;;;;0.00;0.00;;;15.70;99.90;;;;;;5034114;28;20507;-74
2022/10/12 12:43:59;;;;;;;0.00;0.00;;;15.70;99.90;;;;;;5033606;28;20866;-75
2022/10/12 12:47:07;;;;;;;0.00;0.00;;;15.70;99.90;;;;;;5033339;28;20425;-74
2022/10/12 12:49:59;;;;;;;0.00;0.00;;;15.70;99.90;;;;;;5033518;28;20504;-74
2022/10/12 12:52:29;;;;;;;0.00;0.00;;;15.80;99.90;;;;;;5033491;28;20457;-74
2022/10/12 12:55:29;;;;;;;0.00;0.00;;;15.80;99.90;;;;;;5033700;28;20854;-74
2022/10/12 12:58:07;;;;;;;0.00;0.00;;;15.80;99.90;;;;;;5033052;28;20434;-74
2022/10/12 13:00:48;;;;;;;0.00;0.00;;;15.90;99.90;;;;;;5033131;28;20465;-74
2022/10/12 13:04:02;;;;;;;0.00;0.00;;;15.90;99.90;;;;;;5033149;28;20437;-74
2022/10/12 13:07:02;;;;;;;0.00;0.00;;;15.90;99.90;;;;;;4972528;28;20448;-74
2022/10/12 13:09:56;;;;;;;0.00;0.00;;;16.00;99.90;;;;;;4943750;28;20513;-74
2022/10/12 13:12:40;;;;;;;0.00;0.00;;;15.90;99.90;;;;;;5032833;28;20956;-74
2022/10/12 13:15:27;;;;;;;0.00;0.00;;;15.80;99.90;;;;;;5033325;28;20927;-74
2022/10/12 13:18:21;;;;;;;0.00;0.00;;;15.80;99.90;;;;;;5032966;28;20445;-75
2022/10/12 13:21:17;;;;;;;0.00;0.00;;;15.70;99.90;;;;;;5032606;28;20563;-75
2022/10/12 13:23:47;;;;;;;0.00;0.00;;;15.70;99.90;;;;;;5032904;28;20810;-75